New Douglas, Illinois
Current Conditions -  °F | °C
As of 11:35 AM on Friday 31 Oct 2014 (Local Time) from K3LF Reporting Station
Broken Clouds Broken Clouds  
Wind Chill: 28°   Ceiling: 3700
Heat Index: 39°   Visibility: 10mi
Dew Point: 25°   Wind: 25mph
Humidity: 57%   Direction: 340°NNW
Pressure: 30.25"   Gusts: 32mph
Location:  38.97°N, 89.67°W
Report Text: K3LF 311635Z AUTO 34022G28KT 10SM BKN037 04/M04 A3025 RMK AO2 T00381040 PNO
Loading
Personal Weather Stations






























Interactive Weather Map
Tropical Storm Tracking
New forecast layout! Learn more

10-Day Weather Forecast

Advertisements
Track Severe Weather on mobile